sensor_id;sensor_type;location;lat;lon;timestamp;P1;durP1;ratioP1;P2;durP2;ratioP2
68284;SDS011;55114;52.052;5.238;2023-06-19T00:01:09;10.07;;;7.68;;
68284;SDS011;55114;52.052;5.238;2023-06-19T00:03:36;11.30;;;7.47;;
68284;SDS011;55114;52.052;5.238;2023-06-19T00:06:05;11.70;;;7.50;;
68284;SDS011;55114;52.052;5.238;2023-06-19T00:08:32;17.50;;;7.60;;
68284;SDS011;55114;52.052;5.238;2023-06-19T00:10:59;10.50;;;7.70;;
68284;SDS011;55114;52.052;5.238;2023-06-19T00:13:26;12.27;;;8.30;;
68284;SDS011;55114;52.052;5.238;2023-06-19T00:15:54;13.10;;;7.73;;
68284;SDS011;55114;52.052;5.238;2023-06-19T00:18:21;19.05;;;8.10;;
68284;SDS011;55114;52.052;5.238;2023-06-19T00:20:48;10.45;;;7.50;;
68284;SDS011;55114;52.052;5.238;2023-06-19T00:23:16;14.73;;;8.00;;
68284;SDS011;55114;52.052;5.238;2023-06-19T00:25:43;13.70;;;8.13;;
68284;SDS011;55114;52.052;5.238;2023-06-19T00:28:11;16.97;;;7.63;;
68284;SDS011;55114;52.052;5.238;2023-06-19T00:30:40;13.68;;;7.75;;
68284;SDS011;55114;52.052;5.238;2023-06-19T00:33:07;13.25;;;8.00;;
68284;SDS011;55114;52.052;5.238;2023-06-19T00:35:35;13.57;;;7.80;;
68284;SDS011;55114;52.052;5.238;2023-06-19T00:38:02;10.23;;;7.40;;
68284;SDS011;55114;52.052;5.238;2023-06-19T00:40:30;9.37;;;6.60;;
68284;SDS011;55114;52.052;5.238;2023-06-19T00:42:58;19.15;;;5.97;;
68284;SDS011;55114;52.052;5.238;2023-06-19T00:45:25;9.70;;;5.55;;
68284;SDS011;55114;52.052;5.238;2023-06-19T00:47:53;7.55;;;4.50;;
68284;SDS011;55114;52.052;5.238;2023-06-19T00:50:21;6.45;;;4.00;;
68284;SDS011;55114;52.052;5.238;2023-06-19T00:52:48;7.00;;;3.90;;
68284;SDS011;55114;52.052;5.238;2023-06-19T00:55:16;5.82;;;3.70;;
68284;SDS011;55114;52.052;5.238;2023-06-19T00:57:44;5.35;;;3.40;;
68284;SDS011;55114;52.052;5.238;2023-06-19T01:00:12;5.07;;;3.20;;
68284;SDS011;55114;52.052;5.238;2023-06-19T01:02:39;4.45;;;2.65;;
68284;SDS011;55114;52.052;5.238;2023-06-19T01:05:07;6.40;;;3.03;;
68284;SDS011;55114;52.052;5.238;2023-06-19T01:07:42;4.75;;;2.60;;
68284;SDS011;55114;52.052;5.238;2023-06-19T01:10:16;6.13;;;3.00;;
68284;SDS011;55114;52.052;5.238;2023-06-19T01:12:49;4.90;;;2.70;;
68284;SDS011;55114;52.052;5.238;2023-06-19T01:15:19;6.25;;;2.83;;
68284;SDS011;55114;52.052;5.238;2023-06-19T01:17:46;5.10;;;2.50;;
68284;SDS011;55114;52.052;5.238;2023-06-19T01:20:14;4.22;;;2.20;;
68284;SDS011;55114;52.052;5.238;2023-06-19T01:22:41;5.85;;;2.70;;
68284;SDS011;55114;52.052;5.238;2023-06-19T01:25:10;4.82;;;2.55;;
68284;SDS011;55114;52.052;5.238;2023-06-19T01:27:40;5.38;;;2.17;;
68284;SDS011;55114;52.052;5.238;2023-06-19T01:30:08;8.87;;;2.17;;
68284;SDS011;55114;52.052;5.238;2023-06-19T01:35:13;4.82;;;1.90;;
68284;SDS011;55114;52.052;5.238;2023-06-19T01:37:41;4.30;;;1.92;;
68284;SDS011;55114;52.052;5.238;2023-06-19T01:40:09;4.13;;;1.90;;
68284;SDS011;55114;52.052;5.238;2023-06-19T01:42:37;4.33;;;1.90;;
68284;SDS011;55114;52.052;5.238;2023-06-19T01:45:06;5.63;;;1.88;;
68284;SDS011;55114;52.052;5.238;2023-06-19T01:47:33;4.93;;;2.00;;
68284;SDS011;55114;52.052;5.238;2023-06-19T01:50:01;7.78;;;1.90;;
68284;SDS011;55114;52.052;5.238;2023-06-19T01:52:28;3.80;;;2.10;;
68284;SDS011;55114;52.052;5.238;2023-06-19T01:54:55;6.17;;;2.40;;
68284;SDS011;55114;52.052;5.238;2023-06-19T01:57:22;8.98;;;2.28;;
68284;SDS011;55114;52.052;5.238;2023-06-19T01:59:49;7.90;;;2.40;;
68284;SDS011;55114;52.052;5.238;2023-06-19T02:02:16;5.57;;;2.40;;
68284;SDS011;55114;52.052;5.238;2023-06-19T02:04:43;5.55;;;2.58;;
68284;SDS011;55114;52.052;5.238;2023-06-19T02:07:11;4.33;;;2.43;;
68284;SDS011;55114;52.052;5.238;2023-06-19T02:09:38;5.50;;;2.33;;
68284;SDS011;55114;52.052;5.238;2023-06-19T02:12:05;4.75;;;2.60;;
68284;SDS011;55114;52.052;5.238;2023-06-19T02:14:33;5.25;;;2.55;;
68284;SDS011;55114;52.052;5.238;2023-06-19T02:17:00;6.38;;;3.08;;
68284;SDS011;55114;52.052;5.238;2023-06-19T02:19:27;13.70;;;3.03;;
68284;SDS011;55114;52.052;5.238;2023-06-19T02:21:54;4.57;;;2.80;;
68284;SDS011;55114;52.052;5.238;2023-06-19T02:24:22;5.32;;;2.90;;
68284;SDS011;55114;52.052;5.238;2023-06-19T02:26:49;5.20;;;2.47;;
68284;SDS011;55114;52.052;5.238;2023-06-19T02:29:17;5.45;;;2.80;;
68284;SDS011;55114;52.052;5.238;2023-06-19T02:31:44;5.10;;;3.20;;
68284;SDS011;55114;52.052;5.238;2023-06-19T02:34:11;5.75;;;2.90;;
68284;SDS011;55114;52.052;5.238;2023-06-19T02:36:38;6.10;;;3.03;;
68284;SDS011;55114;52.052;5.238;2023-06-19T02:39:06;4.57;;;2.80;;
68284;SDS011;55114;52.052;5.238;2023-06-19T02:41:33;5.18;;;3.30;;
68284;SDS011;55114;52.052;5.238;2023-06-19T02:44:00;5.77;;;3.00;;
68284;SDS011;55114;52.052;5.238;2023-06-19T02:46:28;4.70;;;2.90;;
68284;SDS011;55114;52.052;5.238;2023-06-19T02:48:55;5.78;;;2.90;;
68284;SDS011;55114;52.052;5.238;2023-06-19T02:51:22;6.85;;;3.00;;
68284;SDS011;55114;52.052;5.238;2023-06-19T02:53:49;9.45;;;3.60;;
68284;SDS011;55114;52.052;5.238;2023-06-19T02:56:16;5.97;;;3.47;;
68284;SDS011;55114;52.052;5.238;2023-06-19T02:58:43;5.35;;;3.22;;
68284;SDS011;55114;52.052;5.238;2023-06-19T03:01:11;8.45;;;3.20;;
68284;SDS011;55114;52.052;5.238;2023-06-19T03:03:38;6.00;;;3.63;;
68284;SDS011;55114;52.052;5.238;2023-06-19T03:06:07;7.22;;;3.70;;
68284;SDS011;55114;52.052;5.238;2023-06-19T03:08:35;5.73;;;3.60;;
68284;SDS011;55114;52.052;5.238;2023-06-19T03:11:02;6.22;;;3.90;;
68284;SDS011;55114;52.052;5.238;2023-06-19T03:13:43;8.98;;;3.80;;
68284;SDS011;55114;52.052;5.238;2023-06-19T03:16:10;6.32;;;3.70;;
68284;SDS011;55114;52.052;5.238;2023-06-19T03:18:38;6.18;;;3.65;;
68284;SDS011;55114;52.052;5.238;2023-06-19T03:21:05;7.23;;;4.10;;
68284;SDS011;55114;52.052;5.238;2023-06-19T03:23:32;6.88;;;3.90;;
68284;SDS011;55114;52.052;5.238;2023-06-19T03:25:59;6.60;;;4.00;;
68284;SDS011;55114;52.052;5.238;2023-06-19T03:28:26;6.45;;;3.90;;
68284;SDS011;55114;52.052;5.238;2023-06-19T03:30:53;9.50;;;4.60;;
68284;SDS011;55114;52.052;5.238;2023-06-19T03:33:21;7.33;;;4.87;;
68284;SDS011;55114;52.052;5.238;2023-06-19T03:35:48;8.43;;;4.50;;
68284;SDS011;55114;52.052;5.238;2023-06-19T03:38:15;7.88;;;5.28;;
68284;SDS011;55114;52.052;5.238;2023-06-19T03:40:43;9.55;;;5.82;;
68284;SDS011;55114;52.052;5.238;2023-06-19T03:43:10;10.52;;;5.90;;
68284;SDS011;55114;52.052;5.238;2023-06-19T03:45:37;9.67;;;5.67;;
68284;SDS011;55114;52.052;5.238;2023-06-19T03:48:05;12.55;;;6.65;;
68284;SDS011;55114;52.052;5.238;2023-06-19T03:50:33;15.07;;;7.70;;
68284;SDS011;55114;52.052;5.238;2023-06-19T03:53:00;11.43;;;7.32;;
68284;SDS011;55114;52.052;5.238;2023-06-19T03:55:27;16.10;;;7.88;;
68284;SDS011;55114;52.052;5.238;2023-06-19T03:57:54;12.50;;;7.63;;
68284;SDS011;55114;52.052;5.238;2023-06-19T04:00:22;17.75;;;7.88;;
68284;SDS011;55114;52.052;5.238;2023-06-19T04:02:50;13.93;;;7.93;;
68284;SDS011;55114;52.052;5.238;2023-06-19T04:05:17;14.98;;;9.27;;
68284;SDS011;55114;52.052;5.238;2023-06-19T04:07:45;17.05;;;8.95;;
68284;SDS011;55114;52.052;5.238;2023-06-19T04:10:12;15.87;;;9.50;;
68284;SDS011;55114;52.052;5.238;2023-06-19T04:12:40;15.68;;;9.23;;
68284;SDS011;55114;52.052;5.238;2023-06-19T04:15:08;16.05;;;9.48;;
68284;SDS011;55114;52.052;5.238;2023-06-19T04:17:35;15.88;;;9.48;;
68284;SDS011;55114;52.052;5.238;2023-06-19T04:20:03;15.65;;;9.93;;
68284;SDS011;55114;52.052;5.238;2023-06-19T04:22:37;14.93;;;9.77;;
68284;SDS011;55114;52.052;5.238;2023-06-19T04:25:08;15.48;;;8.63;;
68284;SDS011;55114;52.052;5.238;2023-06-19T04:27:39;18.13;;;9.27;;
68284;SDS011;55114;52.052;5.238;2023-06-19T04:30:06;16.38;;;7.43;;
68284;SDS011;55114;52.052;5.238;2023-06-19T04:32:34;12.20;;;7.35;;
68284;SDS011;55114;52.052;5.238;2023-06-19T04:35:01;10.50;;;5.90;;
68284;SDS011;55114;52.052;5.238;2023-06-19T04:37:29;8.95;;;5.13;;
68284;SDS011;55114;52.052;5.238;2023-06-19T04:39:56;7.00;;;3.78;;
68284;SDS011;55114;52.052;5.238;2023-06-19T04:42:24;6.32;;;2.90;;
68284;SDS011;55114;52.052;5.238;2023-06-19T04:44:52;6.38;;;2.70;;
68284;SDS011;55114;52.052;5.238;2023-06-19T04:47:22;4.00;;;2.40;;
68284;SDS011;55114;52.052;5.238;2023-06-19T04:50:01;5.50;;;2.13;;
68284;SDS011;55114;52.052;5.238;2023-06-19T04:52:29;4.95;;;2.60;;
68284;SDS011;55114;52.052;5.238;2023-06-19T04:54:59;4.85;;;2.55;;
68284;SDS011;55114;52.052;5.238;2023-06-19T04:57:26;6.00;;;2.83;;
68284;SDS011;55114;52.052;5.238;2023-06-19T04:59:53;7.20;;;4.30;;
68284;SDS011;55114;52.052;5.238;2023-06-19T05:02:21;8.27;;;4.97;;
68284;SDS011;55114;52.052;5.238;2023-06-19T05:04:50;7.18;;;4.63;;
68284;SDS011;55114;52.052;5.238;2023-06-19T05:07:17;6.93;;;4.22;;
68284;SDS011;55114;52.052;5.238;2023-06-19T05:09:44;7.00;;;3.90;;
68284;SDS011;55114;52.052;5.238;2023-06-19T05:12:11;7.73;;;3.33;;
68284;SDS011;55114;52.052;5.238;2023-06-19T05:14:39;8.75;;;3.28;;
68284;SDS011;55114;52.052;5.238;2023-06-19T05:17:06;5.07;;;2.75;;
68284;SDS011;55114;52.052;5.238;2023-06-19T05:19:35;6.65;;;2.85;;
68284;SDS011;55114;52.052;5.238;2023-06-19T05:22:02;6.38;;;3.08;;
68284;SDS011;55114;52.052;5.238;2023-06-19T05:24:30;6.73;;;3.20;;
68284;SDS011;55114;52.052;5.238;2023-06-19T05:26:57;6.53;;;3.80;;
68284;SDS011;55114;52.052;5.238;2023-06-19T05:29:24;7.57;;;4.15;;
68284;SDS011;55114;52.052;5.238;2023-06-19T05:31:51;9.38;;;5.50;;
68284;SDS011;55114;52.052;5.238;2023-06-19T05:34:18;12.02;;;6.35;;
68284;SDS011;55114;52.052;5.238;2023-06-19T05:36:45;9.13;;;6.13;;
68284;SDS011;55114;52.052;5.238;2023-06-19T05:39:13;9.45;;;5.95;;
68284;SDS011;55114;52.052;5.238;2023-06-19T05:41:41;11.25;;;7.28;;
68284;SDS011;55114;52.052;5.238;2023-06-19T05:44:08;12.23;;;6.78;;
68284;SDS011;55114;52.052;5.238;2023-06-19T05:46:35;11.82;;;7.05;;
68284;SDS011;55114;52.052;5.238;2023-06-19T05:49:03;12.83;;;7.17;;
68284;SDS011;55114;52.052;5.238;2023-06-19T05:51:30;12.10;;;7.50;;
68284;SDS011;55114;52.052;5.238;2023-06-19T05:53:57;10.18;;;7.13;;
68284;SDS011;55114;52.052;5.238;2023-06-19T05:56:32;13.57;;;6.60;;
68284;SDS011;55114;52.052;5.238;2023-06-19T05:59:00;10.32;;;6.18;;
68284;SDS011;55114;52.052;5.238;2023-06-19T06:01:28;15.57;;;6.93;;
68284;SDS011;55114;52.052;5.238;2023-06-19T06:03:56;10.43;;;6.13;;
68284;SDS011;55114;52.052;5.238;2023-06-19T06:06:23;10.20;;;6.00;;
68284;SDS011;55114;52.052;5.238;2023-06-19T06:08:51;9.60;;;5.50;;
68284;SDS011;55114;52.052;5.238;2023-06-19T06:11:19;8.32;;;4.72;;
68284;SDS011;55114;52.052;5.238;2023-06-19T06:13:46;6.83;;;4.30;;
68284;SDS011;55114;52.052;5.238;2023-06-19T06:16:13;7.05;;;4.85;;
68284;SDS011;55114;52.052;5.238;2023-06-19T06:18:41;7.80;;;4.00;;
68284;SDS011;55114;52.052;5.238;2023-06-19T06:21:08;7.28;;;4.80;;
68284;SDS011;55114;52.052;5.238;2023-06-19T06:23:36;8.88;;;5.15;;
68284;SDS011;55114;52.052;5.238;2023-06-19T06:26:03;8.93;;;5.53;;
68284;SDS011;55114;52.052;5.238;2023-06-19T06:28:31;9.45;;;5.88;;
68284;SDS011;55114;52.052;5.238;2023-06-19T06:30:58;12.07;;;6.20;;
68284;SDS011;55114;52.052;5.238;2023-06-19T06:33:25;9.88;;;5.90;;
68284;SDS011;55114;52.052;5.238;2023-06-19T06:35:54;10.52;;;5.78;;
68284;SDS011;55114;52.052;5.238;2023-06-19T06:38:21;8.87;;;5.83;;
68284;SDS011;55114;52.052;5.238;2023-06-19T06:40:48;9.30;;;6.07;;
68284;SDS011;55114;52.052;5.238;2023-06-19T06:43:16;11.02;;;6.60;;
68284;SDS011;55114;52.052;5.238;2023-06-19T06:45:43;10.98;;;6.43;;
68284;SDS011;55114;52.052;5.238;2023-06-19T06:48:11;10.18;;;6.50;;
68284;SDS011;55114;52.052;5.238;2023-06-19T06:50:38;11.50;;;6.77;;
68284;SDS011;55114;52.052;5.238;2023-06-19T06:53:07;10.10;;;6.72;;
68284;SDS011;55114;52.052;5.238;2023-06-19T06:55:34;12.45;;;7.05;;
68284;SDS011;55114;52.052;5.238;2023-06-19T06:58:01;13.00;;;7.80;;
68284;SDS011;55114;52.052;5.238;2023-06-19T07:00:29;11.80;;;8.50;;
68284;SDS011;55114;52.052;5.238;2023-06-19T07:02:56;13.17;;;9.53;;
68284;SDS011;55114;52.052;5.238;2023-06-19T07:05:23;15.63;;;11.43;;
68284;SDS011;55114;52.052;5.238;2023-06-19T07:07:51;16.92;;;11.05;;
68284;SDS011;55114;52.052;5.238;2023-06-19T07:10:18;17.15;;;11.15;;
68284;SDS011;55114;52.052;5.238;2023-06-19T07:12:48;15.63;;;10.20;;
68284;SDS011;55114;52.052;5.238;2023-06-19T07:15:16;15.83;;;9.27;;
68284;SDS011;55114;52.052;5.238;2023-06-19T07:17:43;15.73;;;9.43;;
68284;SDS011;55114;52.052;5.238;2023-06-19T07:20:11;14.77;;;9.25;;
68284;SDS011;55114;52.052;5.238;2023-06-19T07:22:38;15.48;;;9.95;;
68284;SDS011;55114;52.052;5.238;2023-06-19T07:25:06;14.75;;;9.90;;
68284;SDS011;55114;52.052;5.238;2023-06-19T07:27:33;13.87;;;9.50;;
68284;SDS011;55114;52.052;5.238;2023-06-19T07:30:01;17.27;;;10.38;;
68284;SDS011;55114;52.052;5.238;2023-06-19T07:32:28;18.02;;;10.80;;
68284;SDS011;55114;52.052;5.238;2023-06-19T07:34:55;21.05;;;11.95;;
68284;SDS011;55114;52.052;5.238;2023-06-19T07:37:22;19.98;;;12.35;;
68284;SDS011;55114;52.052;5.238;2023-06-19T07:39:50;16.80;;;11.47;;
68284;SDS011;55114;52.052;5.238;2023-06-19T07:42:18;18.90;;;11.82;;
68284;SDS011;55114;52.052;5.238;2023-06-19T07:44:45;18.17;;;11.68;;
68284;SDS011;55114;52.052;5.238;2023-06-19T07:47:13;17.08;;;11.25;;
68284;SDS011;55114;52.052;5.238;2023-06-19T07:49:41;15.55;;;10.50;;
68284;SDS011;55114;52.052;5.238;2023-06-19T07:52:08;15.97;;;10.17;;
68284;SDS011;55114;52.052;5.238;2023-06-19T07:54:50;16.67;;;10.23;;
68284;SDS011;55114;52.052;5.238;2023-06-19T07:57:18;19.73;;;10.85;;
68284;SDS011;55114;52.052;5.238;2023-06-19T07:59:46;16.90;;;10.57;;
68284;SDS011;55114;52.052;5.238;2023-06-19T08:02:13;17.85;;;10.68;;
68284;SDS011;55114;52.052;5.238;2023-06-19T08:04:40;16.00;;;11.03;;
68284;SDS011;55114;52.052;5.238;2023-06-19T08:07:07;18.60;;;10.50;;
68284;SDS011;55114;52.052;5.238;2023-06-19T08:09:34;18.45;;;11.50;;
68284;SDS011;55114;52.052;5.238;2023-06-19T08:12:02;18.75;;;10.95;;
68284;SDS011;55114;52.052;5.238;2023-06-19T08:14:29;17.77;;;11.07;;
68284;SDS011;55114;52.052;5.238;2023-06-19T08:16:56;19.13;;;11.70;;
68284;SDS011;55114;52.052;5.238;2023-06-19T08:19:23;19.65;;;11.45;;
68284;SDS011;55114;52.052;5.238;2023-06-19T08:21:51;19.80;;;11.68;;
68284;SDS011;55114;52.052;5.238;2023-06-19T08:24:18;19.92;;;11.80;;
68284;SDS011;55114;52.052;5.238;2023-06-19T08:26:45;18.50;;;11.00;;
68284;SDS011;55114;52.052;5.238;2023-06-19T08:29:17;19.60;;;12.27;;
68284;SDS011;55114;52.052;5.238;2023-06-19T08:31:44;19.63;;;12.23;;
68284;SDS011;55114;52.052;5.238;2023-06-19T08:34:11;19.52;;;11.95;;
68284;SDS011;55114;52.052;5.238;2023-06-19T08:36:39;18.33;;;11.98;;
68284;SDS011;55114;52.052;5.238;2023-06-19T08:39:06;20.10;;;12.60;;
68284;SDS011;55114;52.052;5.238;2023-06-19T08:41:36;18.70;;;11.83;;
68284;SDS011;55114;52.052;5.238;2023-06-19T08:44:04;18.30;;;12.02;;
68284;SDS011;55114;52.052;5.238;2023-06-19T08:46:31;21.30;;;13.18;;
68284;SDS011;55114;52.052;5.238;2023-06-19T08:48:58;21.33;;;12.43;;
68284;SDS011;55114;52.052;5.238;2023-06-19T08:51:27;20.00;;;12.75;;
68284;SDS011;55114;52.052;5.238;2023-06-19T08:53:56;20.30;;;12.90;;
68284;SDS011;55114;52.052;5.238;2023-06-19T08:56:23;19.70;;;12.85;;
68284;SDS011;55114;52.052;5.238;2023-06-19T08:58:51;22.52;;;13.68;;
68284;SDS011;55114;52.052;5.238;2023-06-19T09:01:18;20.35;;;12.45;;
68284;SDS011;55114;52.052;5.238;2023-06-19T09:03:46;22.08;;;12.07;;
68284;SDS011;55114;52.052;5.238;2023-06-19T09:06:18;19.17;;;12.33;;
68284;SDS011;55114;52.052;5.238;2023-06-19T09:08:45;20.02;;;12.43;;
68284;SDS011;55114;52.052;5.238;2023-06-19T09:11:24;19.02;;;12.93;;
68284;SDS011;55114;52.052;5.238;2023-06-19T09:13:57;18.65;;;11.77;;
68284;SDS011;55114;52.052;5.238;2023-06-19T09:16:39;20.02;;;12.75;;
68284;SDS011;55114;52.052;5.238;2023-06-19T09:19:07;20.07;;;12.10;;
68284;SDS011;55114;52.052;5.238;2023-06-19T09:21:35;19.08;;;11.85;;
68284;SDS011;55114;52.052;5.238;2023-06-19T09:24:05;21.08;;;12.23;;
68284;SDS011;55114;52.052;5.238;2023-06-19T09:26:32;17.70;;;11.75;;
68284;SDS011;55114;52.052;5.238;2023-06-19T09:29:12;17.48;;;11.38;;
68284;SDS011;55114;52.052;5.238;2023-06-19T09:31:42;17.20;;;10.33;;
68284;SDS011;55114;52.052;5.238;2023-06-19T09:34:10;19.23;;;10.80;;
68284;SDS011;55114;52.052;5.238;2023-06-19T09:36:37;16.80;;;10.90;;
68284;SDS011;55114;52.052;5.238;2023-06-19T09:39:05;16.58;;;10.50;;
68284;SDS011;55114;52.052;5.238;2023-06-19T09:41:32;18.77;;;11.75;;
68284;SDS011;55114;52.052;5.238;2023-06-19T09:44:00;18.30;;;11.30;;
68284;SDS011;55114;52.052;5.238;2023-06-19T09:46:29;17.75;;;10.40;;
68284;SDS011;55114;52.052;5.238;2023-06-19T09:48:58;15.57;;;10.35;;
68284;SDS011;55114;52.052;5.238;2023-06-19T09:51:30;15.50;;;9.85;;
68284;SDS011;55114;52.052;5.238;2023-06-19T09:53:57;18.00;;;10.38;;
68284;SDS011;55114;52.052;5.238;2023-06-19T09:56:25;18.67;;;11.57;;
68284;SDS011;55114;52.052;5.238;2023-06-19T09:58:53;15.38;;;10.07;;
68284;SDS011;55114;52.052;5.238;2023-06-19T10:01:21;16.67;;;11.35;;
68284;SDS011;55114;52.052;5.238;2023-06-19T10:03:49;18.52;;;11.20;;
68284;SDS011;55114;52.052;5.238;2023-06-19T10:06:17;18.42;;;10.98;;
68284;SDS011;55114;52.052;5.238;2023-06-19T10:08:46;17.20;;;11.53;;
68284;SDS011;55114;52.052;5.238;2023-06-19T10:11:14;18.27;;;10.68;;
68284;SDS011;55114;52.052;5.238;2023-06-19T10:13:41;15.88;;;11.05;;
68284;SDS011;55114;52.052;5.238;2023-06-19T10:16:19;18.27;;;11.63;;
68284;SDS011;55114;52.052;5.238;2023-06-19T10:18:47;18.33;;;11.95;;
68284;SDS011;55114;52.052;5.238;2023-06-19T10:21:18;16.97;;;11.50;;
68284;SDS011;55114;52.052;5.238;2023-06-19T10:23:52;22.63;;;11.18;;
68284;SDS011;55114;52.052;5.238;2023-06-19T10:26:28;15.93;;;11.85;;
68284;SDS011;55114;52.052;5.238;2023-06-19T10:28:56;15.80;;;10.88;;
68284;SDS011;55114;52.052;5.238;2023-06-19T10:31:23;16.58;;;10.70;;
68284;SDS011;55114;52.052;5.238;2023-06-19T10:33:50;15.73;;;10.80;;
68284;SDS011;55114;52.052;5.238;2023-06-19T10:36:18;15.50;;;10.70;;
68284;SDS011;55114;52.052;5.238;2023-06-19T10:38:46;17.00;;;10.98;;
68284;SDS011;55114;52.052;5.238;2023-06-19T10:41:17;15.68;;;10.75;;
68284;SDS011;55114;52.052;5.238;2023-06-19T10:46:24;13.80;;;9.93;;
68284;SDS011;55114;52.052;5.238;2023-06-19T10:48:52;15.60;;;11.15;;
68284;SDS011;55114;52.052;5.238;2023-06-19T10:51:22;17.52;;;11.88;;
68284;SDS011;55114;52.052;5.238;2023-06-19T10:53:50;17.60;;;12.40;;
68284;SDS011;55114;52.052;5.238;2023-06-19T10:56:17;20.00;;;10.60;;
68284;SDS011;55114;52.052;5.238;2023-06-19T10:58:47;16.57;;;11.60;;
68284;SDS011;55114;52.052;5.238;2023-06-19T11:01:14;19.38;;;12.07;;
68284;SDS011;55114;52.052;5.238;2023-06-19T11:03:41;16.17;;;11.80;;
68284;SDS011;55114;52.052;5.238;2023-06-19T11:06:09;16.67;;;11.70;;
68284;SDS011;55114;52.052;5.238;2023-06-19T11:08:36;20.45;;;13.77;;
68284;SDS011;55114;52.052;5.238;2023-06-19T11:11:03;15.43;;;11.50;;
68284;SDS011;55114;52.052;5.238;2023-06-19T11:13:30;16.75;;;12.15;;
68284;SDS011;55114;52.052;5.238;2023-06-19T11:15:58;16.58;;;11.70;;
68284;SDS011;55114;52.052;5.238;2023-06-19T11:18:25;17.17;;;12.45;;
68284;SDS011;55114;52.052;5.238;2023-06-19T11:20:52;14.88;;;12.07;;
68284;SDS011;55114;52.052;5.238;2023-06-19T11:23:26;15.17;;;12.00;;
68284;SDS011;55114;52.052;5.238;2023-06-19T11:25:54;116.45;;;14.75;;
68284;SDS011;55114;52.052;5.238;2023-06-19T11:28:28;16.13;;;11.80;;
68284;SDS011;55114;52.052;5.238;2023-06-19T11:30:59;15.60;;;11.13;;
68284;SDS011;55114;52.052;5.238;2023-06-19T11:33:28;16.77;;;12.18;;
68284;SDS011;55114;52.052;5.238;2023-06-19T11:35:59;13.97;;;10.67;;
68284;SDS011;55114;52.052;5.238;2023-06-19T11:38:27;14.35;;;11.00;;
68284;SDS011;55114;52.052;5.238;2023-06-19T11:40:55;15.63;;;11.30;;
68284;SDS011;55114;52.052;5.238;2023-06-19T11:43:29;14.15;;;11.00;;
68284;SDS011;55114;52.052;5.238;2023-06-19T11:46:04;15.75;;;10.88;;
68284;SDS011;55114;52.052;5.238;2023-06-19T11:48:31;16.60;;;11.40;;
68284;SDS011;55114;52.052;5.238;2023-06-19T11:50:59;22.08;;;11.10;;
68284;SDS011;55114;52.052;5.238;2023-06-19T11:53:26;23.73;;;11.32;;
68284;SDS011;55114;52.052;5.238;2023-06-19T11:55:53;17.42;;;10.95;;
68284;SDS011;55114;52.052;5.238;2023-06-19T11:58:20;13.88;;;10.93;;
68284;SDS011;55114;52.052;5.238;2023-06-19T12:00:48;14.80;;;10.90;;
68284;SDS011;55114;52.052;5.238;2023-06-19T12:03:15;18.13;;;11.05;;
68284;SDS011;55114;52.052;5.238;2023-06-19T12:05:43;13.88;;;10.80;;
68284;SDS011;55114;52.052;5.238;2023-06-19T12:08:10;13.75;;;10.10;;
68284;SDS011;55114;52.052;5.238;2023-06-19T12:10:37;14.35;;;10.73;;
68284;SDS011;55114;52.052;5.238;2023-06-19T12:13:04;12.53;;;10.43;;
68284;SDS011;55114;52.052;5.238;2023-06-19T12:15:31;12.75;;;10.43;;
68284;SDS011;55114;52.052;5.238;2023-06-19T12:18:02;14.13;;;10.80;;
68284;SDS011;55114;52.052;5.238;2023-06-19T12:20:30;12.77;;;10.10;;
68284;SDS011;55114;52.052;5.238;2023-06-19T12:22:57;14.02;;;10.63;;
68284;SDS011;55114;52.052;5.238;2023-06-19T12:25:25;12.23;;;9.33;;
68284;SDS011;55114;52.052;5.238;2023-06-19T12:27:52;13.82;;;10.63;;
68284;SDS011;55114;52.052;5.238;2023-06-19T12:30:21;12.85;;;9.68;;
68284;SDS011;55114;52.052;5.238;2023-06-19T12:32:49;12.85;;;9.43;;
68284;SDS011;55114;52.052;5.238;2023-06-19T12:35:16;11.93;;;9.05;;
68284;SDS011;55114;52.052;5.238;2023-06-19T12:37:44;12.30;;;9.27;;
68284;SDS011;55114;52.052;5.238;2023-06-19T12:40:12;12.85;;;9.93;;
68284;SDS011;55114;52.052;5.238;2023-06-19T12:42:39;12.55;;;9.50;;
68284;SDS011;55114;52.052;5.238;2023-06-19T12:45:06;13.25;;;9.35;;
68284;SDS011;55114;52.052;5.238;2023-06-19T12:47:34;11.98;;;9.25;;
68284;SDS011;55114;52.052;5.238;2023-06-19T12:50:01;12.53;;;8.83;;
68284;SDS011;55114;52.052;5.238;2023-06-19T12:52:28;12.13;;;9.07;;
68284;SDS011;55114;52.052;5.238;2023-06-19T12:54:57;12.13;;;8.73;;
68284;SDS011;55114;52.052;5.238;2023-06-19T12:57:25;11.35;;;8.68;;
68284;SDS011;55114;52.052;5.238;2023-06-19T12:59:53;13.57;;;7.93;;
68284;SDS011;55114;52.052;5.238;2023-06-19T13:02:20;11.93;;;8.80;;
68284;SDS011;55114;52.052;5.238;2023-06-19T13:04:47;11.82;;;8.38;;
68284;SDS011;55114;52.052;5.238;2023-06-19T13:07:14;11.05;;;8.80;;
68284;SDS011;55114;52.052;5.238;2023-06-19T13:09:42;11.05;;;7.90;;
68284;SDS011;55114;52.052;5.238;2023-06-19T13:12:09;13.48;;;7.82;;
68284;SDS011;55114;52.052;5.238;2023-06-19T13:14:36;10.53;;;7.07;;
68284;SDS011;55114;52.052;5.238;2023-06-19T13:17:04;12.93;;;7.43;;
68284;SDS011;55114;52.052;5.238;2023-06-19T13:19:31;10.93;;;7.53;;
68284;SDS011;55114;52.052;5.238;2023-06-19T13:21:59;10.20;;;7.72;;
68284;SDS011;55114;52.052;5.238;2023-06-19T13:24:26;10.55;;;7.70;;
68284;SDS011;55114;52.052;5.238;2023-06-19T13:26:53;11.23;;;7.20;;
68284;SDS011;55114;52.052;5.238;2023-06-19T13:29:21;10.95;;;6.78;;
68284;SDS011;55114;52.052;5.238;2023-06-19T13:31:48;8.73;;;7.15;;
68284;SDS011;55114;52.052;5.238;2023-06-19T13:34:15;9.60;;;6.85;;
68284;SDS011;55114;52.052;5.238;2023-06-19T13:36:44;9.25;;;6.88;;
68284;SDS011;55114;52.052;5.238;2023-06-19T13:39:11;9.23;;;7.50;;
68284;SDS011;55114;52.052;5.238;2023-06-19T13:41:38;9.80;;;6.80;;
68284;SDS011;55114;52.052;5.238;2023-06-19T13:44:06;9.85;;;7.18;;
68284;SDS011;55114;52.052;5.238;2023-06-19T13:46:33;10.25;;;7.78;;
68284;SDS011;55114;52.052;5.238;2023-06-19T13:49:00;9.88;;;7.07;;
68284;SDS011;55114;52.052;5.238;2023-06-19T13:51:28;10.87;;;7.40;;
68284;SDS011;55114;52.052;5.238;2023-06-19T13:53:55;12.10;;;8.00;;
68284;SDS011;55114;52.052;5.238;2023-06-19T13:56:22;10.30;;;7.30;;
68284;SDS011;55114;52.052;5.238;2023-06-19T13:58:49;8.57;;;6.63;;
68284;SDS011;55114;52.052;5.238;2023-06-19T14:01:17;10.93;;;7.30;;
68284;SDS011;55114;52.052;5.238;2023-06-19T14:03:44;11.03;;;7.10;;
68284;SDS011;55114;52.052;5.238;2023-06-19T14:06:11;9.88;;;7.53;;
68284;SDS011;55114;52.052;5.238;2023-06-19T14:08:39;10.60;;;6.97;;
68284;SDS011;55114;52.052;5.238;2023-06-19T14:11:06;8.07;;;6.47;;
68284;SDS011;55114;52.052;5.238;2023-06-19T14:13:33;8.27;;;6.75;;
68284;SDS011;55114;52.052;5.238;2023-06-19T14:16:01;10.13;;;6.57;;
68284;SDS011;55114;52.052;5.238;2023-06-19T14:18:28;13.25;;;7.30;;
68284;SDS011;55114;52.052;5.238;2023-06-19T14:20:55;11.13;;;7.15;;
68284;SDS011;55114;52.052;5.238;2023-06-19T14:23:22;16.83;;;7.18;;
68284;SDS011;55114;52.052;5.238;2023-06-19T14:25:49;10.55;;;8.15;;
68284;SDS011;55114;52.052;5.238;2023-06-19T14:28:17;10.50;;;7.33;;
68284;SDS011;55114;52.052;5.238;2023-06-19T14:30:44;10.15;;;7.35;;
68284;SDS011;55114;52.052;5.238;2023-06-19T14:33:11;9.75;;;7.35;;
68284;SDS011;55114;52.052;5.238;2023-06-19T14:35:41;10.77;;;7.55;;
68284;SDS011;55114;52.052;5.238;2023-06-19T14:38:12;10.65;;;6.97;;
68284;SDS011;55114;52.052;5.238;2023-06-19T14:40:41;9.67;;;6.67;;
68284;SDS011;55114;52.052;5.238;2023-06-19T14:43:08;10.30;;;7.40;;